Time;durP1;ratioP1;P1;durP2;ratioP2;P2;SDS_P1;SDS_P2;PMS_P1;PMS_P2;Temp;Humidity;BMP_temperature;BMP_pressure;BME280_temperature;BME280_humidity;BME280_pressure;Samples;Min_cycle;Max_cycle;Signal;HPM_P1;HPM_P2
2023/01/13 00:02:03;;;;;;;2.90;2.80;;;12.20;99.90;;;;;;5054389;28;20182;-68
2023/01/13 00:04:30;;;;;;;3.20;3.00;;;12.10;99.90;;;;;;5053376;28;20434;-68
2023/01/13 00:06:56;;;;;;;3.23;3.13;;;12.10;99.90;;;;;;5052324;28;20179;-67
2023/01/13 00:09:22;;;;;;;3.40;3.30;;;12.00;99.90;;;;;;5052751;28;20434;-68
2023/01/13 00:11:47;;;;;;;3.20;3.10;;;12.00;99.90;;;;;;5052186;28;20181;-67
2023/01/13 00:14:13;;;;;;;3.40;3.30;;;12.00;99.90;;;;;;5052872;28;20212;-68
2023/01/13 00:16:39;;;;;;;3.50;3.40;;;12.00;99.90;;;;;;5052216;28;20170;-67
2023/01/13 00:19:04;;;;;;;3.00;2.90;;;12.00;99.90;;;;;;5052813;28;20269;-67
2023/01/13 00:21:30;;;;;;;2.70;2.70;;;11.90;99.90;;;;;;5053413;28;20187;-68
2023/01/13 00:23:56;;;;;;;2.90;2.90;;;11.90;99.90;;;;;;5051889;28;20636;-68
2023/01/13 00:26:24;;;;;;;2.60;2.60;;;12.00;99.90;;;;;;5052914;28;20189;-65
2023/01/13 00:28:49;;;;;;;2.50;2.50;;;12.10;99.90;;;;;;5053333;28;20183;-68
2023/01/13 00:31:17;;;;;;;1.80;1.80;;;12.00;99.90;;;;;;5052576;28;20895;-68
2023/01/13 00:33:43;;;;;;;1.93;1.93;;;12.00;99.90;;;;;;5053134;28;20814;-68
2023/01/13 00:36:12;;;;;;;1.70;1.70;;;12.10;99.90;;;;;;5052427;28;20426;-68
2023/01/13 00:38:39;;;;;;;2.00;1.90;;;12.10;99.90;;;;;;5053152;28;20838;-67
2023/01/13 00:41:12;;;;;;;1.70;1.70;;;12.20;99.90;;;;;;5053650;28;20466;-68
2023/01/13 00:43:38;;;;;;;1.60;1.60;;;12.20;99.90;;;;;;5052033;28;20439;-67
2023/01/13 00:46:06;;;;;;;1.70;1.60;;;12.20;99.90;;;;;;5052344;28;20442;-66
2023/01/13 00:48:33;;;;;;;1.60;1.60;;;12.20;99.90;;;;;;5052643;28;20503;-68
2023/01/13 00:51:02;;;;;;;1.67;1.57;;;12.20;99.90;;;;;;5053727;28;20440;-67
2023/01/13 00:53:31;;;;;;;1.43;1.30;;;12.10;99.90;;;;;;5052773;28;20462;-67
2023/01/13 00:56:02;;;;;;;1.40;1.40;;;12.10;99.90;;;;;;5034839;28;20978;-68
2023/01/13 00:58:30;;;;;;;1.70;1.60;;;12.00;99.90;;;;;;5054072;28;20425;-68
2023/01/13 01:01:05;;;;;;;1.37;1.37;;;12.10;99.90;;;;;;5052736;28;20424;-68
2023/01/13 01:03:32;;;;;;;1.87;1.77;;;12.10;99.90;;;;;;5052628;28;20759;-68
2023/01/13 01:06:04;;;;;;;1.43;1.37;;;12.10;99.90;;;;;;5052961;28;20907;-68
2023/01/13 01:08:30;;;;;;;2.40;1.73;;;12.10;99.90;;;;;;5052851;28;20450;-67
2023/01/13 01:11:04;;;;;;;2.20;1.87;;;12.20;99.90;;;;;;5053291;28;20412;-68
2023/01/13 01:13:30;;;;;;;2.50;1.93;;;12.10;99.90;;;;;;5053705;28;20269;-68
2023/01/13 01:15:55;;;;;;;1.97;1.80;;;12.20;99.90;;;;;;5052207;28;20908;-68
2023/01/13 01:18:21;;;;;;;1.87;1.57;;;12.20;99.90;;;;;;5051618;28;20801;-68
2023/01/13 01:20:47;;;;;;;2.70;1.97;;;12.20;99.90;;;;;;5052244;28;20223;-68
2023/01/13 01:23:12;;;;;;;5.07;1.73;;;12.20;99.90;;;;;;5052695;28;20642;-68
2023/01/13 01:25:38;;;;;;;3.53;1.93;;;12.20;99.90;;;;;;5051912;28;20188;-67
2023/01/13 01:28:04;;;;;;;3.57;2.20;;;12.10;99.90;;;;;;5051964;28;20744;-67
2023/01/13 01:30:29;;;;;;;2.40;1.83;;;12.20;99.90;;;;;;5049750;28;20282;-66
2023/01/13 01:32:56;;;;;;;2.93;1.90;;;12.20;99.90;;;;;;5041774;28;20182;-66
2023/01/13 01:35:22;;;;;;;3.60;2.17;;;12.10;99.90;;;;;;5051377;28;20209;-67
2023/01/13 01:37:48;;;;;;;3.03;2.27;;;12.10;99.90;;;;;;5048303;28;20428;-67
2023/01/13 01:40:14;;;;;;;2.50;2.10;;;12.00;99.90;;;;;;5044842;28;20469;-67
2023/01/13 01:45:27;;;;;;;2.80;2.43;;;12.00;99.90;;;;;;5050688;28;20447;-67
2023/01/13 01:47:59;;;;;;;4.43;2.63;;;12.00;99.90;;;;;;5050980;28;20491;-67
2023/01/13 01:50:26;;;;;;;2.33;2.23;;;12.00;99.90;;;;;;5049470;28;20435;-67
2023/01/13 01:52:57;;;;;;;2.13;2.03;;;11.90;99.90;;;;;;5051092;28;20776;-67
2023/01/13 01:55:28;;;;;;;4.13;2.57;;;11.90;99.90;;;;;;5051095;28;20430;-68
2023/01/13 01:58:20;;;;;;;4.03;2.70;;;12.00;99.90;;;;;;5049249;28;20465;-67
2023/01/13 02:00:46;;;;;;;3.87;2.07;;;12.00;99.90;;;;;;5045456;28;20477;-67
2023/01/13 02:03:13;;;;;;;3.63;2.60;;;12.00;99.90;;;;;;5047667;28;20426;-68
2023/01/13 02:05:40;;;;;;;2.03;1.80;;;12.10;99.90;;;;;;5046984;28;20432;-67
2023/01/13 02:08:07;;;;;;;3.10;2.30;;;12.00;99.90;;;;;;5051508;28;20415;-68
2023/01/13 02:10:33;;;;;;;2.73;2.43;;;12.00;99.90;;;;;;5050777;28;20448;-67
2023/01/13 02:13:01;;;;;;;2.80;2.70;;;12.00;99.90;;;;;;5048495;28;20440;-67
2023/01/13 02:15:37;;;;;;;2.90;2.60;;;12.00;99.90;;;;;;5051105;28;20232;-67
2023/01/13 02:18:15;;;;;;;3.20;2.87;;;11.90;99.90;;;;;;5038835;28;20444;-67
2023/01/13 02:20:56;;;;;;;5.33;2.80;;;11.90;99.90;;;;;;5051598;28;20432;-67
2023/01/13 02:26:43;;;;;;;2.93;2.63;;;11.90;99.90;;;;;;5050626;28;20419;-67
2023/01/13 02:32:19;;;;;;;2.77;2.20;;;11.80;99.90;;;;;;5048977;28;20534;-67
2023/01/13 02:35:20;;;;;;;2.43;2.23;;;11.80;99.90;;;;;;5048832;28;20463;-67
2023/01/13 02:37:47;;;;;;;2.63;2.30;;;11.80;99.90;;;;;;5045746;28;20430;-67
2023/01/13 02:40:34;;;;;;;2.20;2.00;;;11.80;99.90;;;;;;5050468;28;20477;-67
2023/01/13 02:46:26;;;;;;;2.13;2.00;;;11.80;99.90;;;;;;5028887;28;20855;-67
2023/01/13 02:48:54;;;;;;;2.43;2.03;;;11.80;99.90;;;;;;5032485;28;20397;-67
2023/01/13 02:51:24;;;;;;;2.43;2.23;;;11.70;99.90;;;;;;5031832;28;20446;-67
2023/01/13 02:54:08;;;;;;;4.27;3.87;;;11.80;99.90;;;;;;5037415;28;20462;-67
2023/01/13 02:56:38;;;;;;;2.83;2.23;;;11.80;99.90;;;;;;5052371;28;20487;-67
2023/01/13 02:59:05;;;;;;;1.73;1.70;;;11.70;99.90;;;;;;5050944;28;20916;-67
2023/01/13 03:01:31;;;;;;;2.20;2.10;;;11.60;99.90;;;;;;5051582;28;20444;-67
2023/01/13 03:03:57;;;;;;;3.83;2.60;;;11.60;99.90;;;;;;5052150;28;20425;-67
2023/01/13 03:06:40;;;;;;;4.00;2.73;;;11.60;99.90;;;;;;5051319;28;20181;-67
2023/01/13 03:09:10;;;;;;;2.63;2.43;;;11.60;99.90;;;;;;5051984;28;20695;-67
2023/01/13 03:11:52;;;;;;;2.50;2.30;;;11.70;99.90;;;;;;5052373;28;20454;-67
2023/01/13 03:14:33;;;;;;;2.90;2.70;;;11.60;99.90;;;;;;5050120;28;20453;-67
2023/01/13 03:17:23;;;;;;;2.70;2.50;;;11.50;99.90;;;;;;5052047;28;20412;-67
2023/01/13 03:20:04;;;;;;;3.00;2.60;;;11.40;99.90;;;;;;5048380;28;20792;-67
2023/01/13 03:22:40;;;;;;;3.10;2.63;;;11.40;99.90;;;;;;5046058;28;20443;-67
2023/01/13 03:25:24;;;;;;;2.70;2.50;;;11.50;99.90;;;;;;5050742;28;20423;-67
2023/01/13 03:28:04;;;;;;;4.93;2.60;;;11.40;99.90;;;;;;5052247;28;20413;-67
2023/01/13 03:30:41;;;;;;;2.73;2.40;;;11.30;99.90;;;;;;5053755;28;20927;-67
2023/01/13 03:33:18;;;;;;;4.13;2.53;;;11.30;99.90;;;;;;5055493;28;20411;-67
2023/01/13 03:35:54;;;;;;;4.00;2.30;;;11.20;99.90;;;;;;5055642;28;20402;-67
2023/01/13 03:38:28;;;;;;;7.00;2.57;;;11.30;99.90;;;;;;5054677;28;20507;-67
2023/01/13 03:40:58;;;;;;;5.30;3.30;;;11.20;99.90;;;;;;5053032;28;20490;-67
2023/01/13 03:44:21;;;;;;;6.87;2.80;;;11.20;99.90;;;;;;5053343;28;20492;-67
2023/01/13 03:46:57;;;;;;;7.70;2.93;;;11.20;99.90;;;;;;5033121;28;20822;-67
2023/01/13 03:49:33;;;;;;;10.13;2.83;;;11.10;99.90;;;;;;5015960;28;20932;-67
2023/01/13 03:52:03;;;;;;;5.90;2.50;;;11.10;99.90;;;;;;5028923;28;20420;-67
2023/01/13 03:54:32;;;;;;;3.00;2.60;;;11.20;99.90;;;;;;5033130;28;20948;-67
2023/01/13 03:57:06;;;;;;;4.30;2.57;;;11.10;99.90;;;;;;5034853;28;20938;-67
2023/01/13 03:59:39;;;;;;;5.93;2.50;;;11.10;99.90;;;;;;5034564;28;20406;-67
2023/01/13 04:02:44;;;;;;;3.60;3.20;;;11.10;99.90;;;;;;5034819;28;20458;-67
2023/01/13 04:05:10;;;;;;;4.60;3.03;;;11.10;99.90;;;;;;5033877;28;20482;-67
2023/01/13 04:07:42;;;;;;;4.30;2.83;;;11.10;99.90;;;;;;5017564;28;20421;-67
2023/01/13 04:10:10;;;;;;;4.10;2.50;;;11.10;99.90;;;;;;5053275;28;20494;-67
2023/01/13 04:13:00;;;;;;;4.30;3.00;;;11.10;99.90;;;;;;5054251;28;20417;-67
2023/01/13 04:15:44;;;;;;;5.67;2.63;;;11.10;99.90;;;;;;5053160;28;20490;-67
2023/01/13 04:18:10;;;;;;;4.60;2.60;;;11.10;99.90;;;;;;5051994;28;20490;-67
2023/01/13 04:20:37;;;;;;;2.83;2.50;;;11.10;99.90;;;;;;5053182;28;20472;-67
2023/01/13 04:23:02;;;;;;;3.93;2.80;;;11.10;99.90;;;;;;5053303;28;20435;-67
2023/01/13 04:25:28;;;;;;;4.43;3.77;;;11.10;99.90;;;;;;5054019;28;20427;-67
2023/01/13 04:27:54;;;;;;;5.23;3.10;;;11.10;99.90;;;;;;5054802;28;20551;-67
2023/01/13 04:30:20;;;;;;;2.80;2.40;;;11.00;99.90;;;;;;5052792;28;20186;-67
2023/01/13 04:32:45;;;;;;;2.80;2.33;;;11.00;99.90;;;;;;5053462;28;20224;-67
2023/01/13 04:35:11;;;;;;;2.63;2.30;;;10.90;99.90;;;;;;5054650;28;20216;-66
2023/01/13 04:37:37;;;;;;;6.60;2.87;;;11.00;99.90;;;;;;5051321;28;20189;-67
2023/01/13 04:40:03;;;;;;;4.73;3.30;;;10.90;99.90;;;;;;5051538;28;20232;-67
2023/01/13 04:42:28;;;;;;;5.80;3.47;;;10.80;99.90;;;;;;5053946;28;20212;-67
2023/01/13 04:44:55;;;;;;;5.10;2.53;;;10.80;99.90;;;;;;5053047;28;20431;-67
2023/01/13 04:47:21;;;;;;;3.57;2.13;;;10.80;99.90;;;;;;5053298;28;20185;-67
2023/01/13 04:49:47;;;;;;;7.30;3.20;;;10.80;99.90;;;;;;5052915;28;20414;-67
2023/01/13 04:52:12;;;;;;;5.97;2.93;;;10.90;99.90;;;;;;5054061;28;20886;-67
2023/01/13 04:54:38;;;;;;;5.10;3.20;;;10.80;99.90;;;;;;5050867;28;20320;-67
2023/01/13 04:57:04;;;;;;;3.53;2.60;;;10.80;99.90;;;;;;5035301;28;20188;-67
2023/01/13 04:59:29;;;;;;;4.90;2.97;;;10.80;99.90;;;;;;5052070;28;20229;-67
2023/01/13 05:01:55;;;;;;;3.80;3.10;;;10.80;99.90;;;;;;5052828;28;20188;-67
2023/01/13 05:04:21;;;;;;;2.97;2.77;;;10.80;99.90;;;;;;5052388;28;20192;-67
2023/01/13 05:06:46;;;;;;;4.17;3.63;;;10.80;99.90;;;;;;5052604;28;20183;-67
2023/01/13 05:09:14;;;;;;;5.23;3.00;;;10.70;99.90;;;;;;5053802;28;20181;-67
2023/01/13 05:17:19;;;;;;;4.60;3.13;;;10.60;99.90;;;;;;5052916;28;20924;-67
2023/01/13 05:19:46;;;;;;;7.20;4.10;;;10.60;99.90;;;;;;5053540;28;20404;-67
2023/01/13 05:27:41;;;;;;;4.03;2.90;;;10.50;99.90;;;;;;5052811;28;20412;-67
2023/01/13 05:30:07;;;;;;;5.20;3.30;;;10.60;99.90;;;;;;5051416;28;20458;-67
2023/01/13 05:32:33;;;;;;;8.13;3.50;;;10.50;99.90;;;;;;5033831;28;20715;-67
2023/01/13 05:34:58;;;;;;;7.33;2.83;;;10.60;99.90;;;;;;5053227;28;20550;-67
2023/01/13 05:37:25;;;;;;;3.20;2.80;;;10.70;99.90;;;;;;5051478;28;20588;-67
2023/01/13 05:45:20;;;;;;;4.33;2.60;;;10.60;99.90;;;;;;5052745;28;20463;-68
2023/01/13 05:47:46;;;;;;;8.77;2.67;;;10.70;99.90;;;;;;5052189;28;20777;-67
2023/01/13 05:50:11;;;;;;;4.03;2.73;;;10.70;99.90;;;;;;5051516;28;20415;-67
2023/01/13 05:52:37;;;;;;;2.27;2.07;;;10.60;99.90;;;;;;5052360;28;20168;-67
2023/01/13 05:55:03;;;;;;;6.03;2.87;;;10.70;99.90;;;;;;5051543;28;20213;-67
2023/01/13 05:57:29;;;;;;;4.37;3.17;;;10.60;99.90;;;;;;5051069;28;20567;-67
2023/01/13 05:59:55;;;;;;;6.20;3.63;;;10.60;99.90;;;;;;5052818;28;20426;-67
2023/01/13 06:02:20;;;;;;;5.83;3.40;;;10.70;99.90;;;;;;5050450;28;20179;-68
2023/01/13 06:04:46;;;;;;;10.30;3.70;;;10.70;99.90;;;;;;5051464;28;20195;-67
2023/01/13 06:07:12;;;;;;;5.40;3.33;;;10.70;99.90;;;;;;5051592;28;20474;-67
2023/01/13 06:09:38;;;;;;;7.60;3.47;;;10.70;99.90;;;;;;5050789;28;20178;-67
2023/01/13 06:12:04;;;;;;;6.53;3.37;;;10.70;99.90;;;;;;5052630;28;20185;-67
2023/01/13 06:14:38;;;;;;;4.77;3.43;;;10.80;99.90;;;;;;5051963;28;20208;-67
2023/01/13 06:17:14;;;;;;;5.57;3.23;;;10.80;99.90;;;;;;5052756;28;20410;-67
2023/01/13 06:19:41;;;;;;;11.77;3.27;;;10.80;99.90;;;;;;5051818;28;20414;-67
2023/01/13 06:22:38;;;;;;;6.83;4.10;;;10.80;99.90;;;;;;5052556;28;20413;-67
2023/01/13 06:25:10;;;;;;;3.30;3.00;;;10.80;99.90;;;;;;5052450;28;20753;-67
2023/01/13 06:27:36;;;;;;;7.33;3.17;;;10.80;99.90;;;;;;5050986;28;20444;-67
2023/01/13 06:30:02;;;;;;;7.40;3.50;;;10.80;99.90;;;;;;5052453;28;20485;-67
2023/01/13 06:32:37;;;;;;;4.37;2.77;;;10.80;99.90;;;;;;5048506;28;20770;-66
2023/01/13 06:35:07;;;;;;;6.57;3.10;;;10.70;99.90;;;;;;5051009;28;20470;-67
2023/01/13 06:37:34;;;;;;;3.73;3.37;;;10.70;99.90;;;;;;5051761;28;20454;-68
2023/01/13 06:40:02;;;;;;;5.00;3.30;;;10.60;99.90;;;;;;5052267;28;20485;-68
2023/01/13 06:45:18;;;;;;;8.03;3.33;;;10.60;99.90;;;;;;5031699;28;20407;-67
2023/01/13 06:47:43;;;;;;;7.47;4.63;;;10.60;99.90;;;;;;5030595;28;20412;-66
2023/01/13 06:50:10;;;;;;;8.33;4.03;;;10.60;99.90;;;;;;5014763;28;20432;-66
2023/01/13 06:52:35;;;;;;;9.60;5.10;;;10.70;99.90;;;;;;5031777;28;20292;-66
2023/01/13 06:55:01;;;;;;;6.20;3.50;;;10.70;99.90;;;;;;5032196;28;20558;-66
2023/01/13 06:57:27;;;;;;;9.17;4.00;;;10.70;99.90;;;;;;5036342;28;20196;-67
2023/01/13 06:59:53;;;;;;;4.63;4.23;;;10.80;99.90;;;;;;5051261;28;20406;-67
2023/01/13 07:02:19;;;;;;;7.23;2.93;;;10.70;99.90;;;;;;5045988;28;20843;-66
2023/01/13 07:04:45;;;;;;;4.37;3.10;;;10.70;99.90;;;;;;5055288;28;20608;-66
2023/01/13 07:07:12;;;;;;;4.47;3.30;;;10.80;99.90;;;;;;5054716;28;20537;-66
2023/01/13 07:09:38;;;;;;;3.67;2.83;;;10.70;99.90;;;;;;5055051;28;20443;-66
2023/01/13 07:12:04;;;;;;;3.43;2.87;;;10.70;99.90;;;;;;5054761;28;20416;-66
2023/01/13 07:17:14;;;;;;;4.63;3.10;;;10.70;99.90;;;;;;5055830;28;20398;-66
2023/01/13 07:19:39;;;;;;;7.60;3.43;;;10.70;99.90;;;;;;5055270;28;20412;-66
2023/01/13 07:22:05;;;;;;;5.13;2.50;;;10.60;99.90;;;;;;5046036;28;20431;-66
2023/01/13 07:24:32;;;;;;;3.53;2.80;;;10.50;99.90;;;;;;5034573;28;20509;-67
2023/01/13 07:26:58;;;;;;;4.30;2.87;;;10.60;99.90;;;;;;5041623;28;20538;-66
2023/01/13 07:29:24;;;;;;;4.03;2.83;;;10.50;99.90;;;;;;5052948;28;20437;-67
2023/01/13 07:31:49;;;;;;;5.43;2.83;;;10.60;99.90;;;;;;5053297;28;20195;-66
2023/01/13 07:34:15;;;;;;;4.40;3.07;;;10.60;99.90;;;;;;5034070;28;20458;-67
2023/01/13 07:36:43;;;;;;;5.00;3.00;;;10.60;99.90;;;;;;5053331;28;20187;-67
2023/01/13 07:39:09;;;;;;;4.17;3.00;;;10.60;99.90;;;;;;5037295;28;20179;-68
2023/01/13 07:44:19;;;;;;;3.33;3.00;;;10.60;99.90;;;;;;5050991;28;20282;-67
2023/01/13 07:46:45;;;;;;;6.80;3.93;;;10.60;99.90;;;;;;5062738;28;21314;-67
2023/01/13 07:49:11;;;;;;;4.50;2.57;;;10.50;99.90;;;;;;5055343;28;20185;-67
2023/01/13 07:51:38;;;;;;;6.90;4.00;;;10.50;99.90;;;;;;5051950;28;20178;-69
2023/01/13 07:54:04;;;;;;;6.30;3.20;;;10.80;99.90;;;;;;5048474;28;20467;-69
2023/01/13 07:56:31;;;;;;;11.57;4.10;;;11.00;99.90;;;;;;5053927;28;20418;-69
2023/01/13 07:58:59;;;;;;;8.50;3.63;;;11.20;99.90;;;;;;5049735;28;20981;-69
2023/01/13 08:01:30;;;;;;;4.80;2.70;;;11.60;99.90;;;;;;5050382;28;20438;-69
2023/01/13 08:03:57;;;;;;;3.70;3.37;;;11.70;99.90;;;;;;5052380;28;20501;-69
2023/01/13 08:06:24;;;;;;;3.43;3.13;;;12.00;99.90;;;;;;5049926;28;20442;-69
2023/01/13 08:08:50;;;;;;;8.00;4.00;;;12.20;99.90;;;;;;5053123;28;20447;-69
2023/01/13 08:11:16;;;;;;;7.17;2.73;;;12.40;99.90;;;;;;5054866;28;20423;-69
2023/01/13 08:13:43;;;;;;;11.23;3.13;;;12.50;99.90;;;;;;5049847;28;20472;-69
2023/01/13 08:16:11;;;;;;;3.90;2.90;;;12.20;99.90;;;;;;5052988;28;20461;-69
2023/01/13 08:18:37;;;;;;;6.77;3.33;;;12.30;99.90;;;;;;5053341;28;20416;-69
2023/01/13 08:21:06;;;;;;;3.07;2.80;;;12.40;99.90;;;;;;5054419;28;20431;-68
2023/01/13 08:23:32;;;;;;;4.53;2.40;;;12.40;99.90;;;;;;5036965;28;20447;-69
2023/01/13 08:26:00;;;;;;;4.53;4.23;;;12.60;99.90;;;;;;5053110;28;20417;-69
2023/01/13 08:28:26;;;;;;;5.10;3.20;;;12.70;99.90;;;;;;5053262;28;20423;-69
2023/01/13 08:30:53;;;;;;;8.20;3.10;;;12.70;99.90;;;;;;5052859;28;20797;-69
2023/01/13 08:33:20;;;;;;;5.80;3.10;;;12.60;99.90;;;;;;5032276;28;20181;-68
2023/01/13 08:35:47;;;;;;;4.70;3.10;;;12.70;99.90;;;;;;5052570;28;20422;-69
2023/01/13 08:38:12;;;;;;;4.93;2.77;;;12.80;99.90;;;;;;5046037;28;20466;-68
2023/01/13 08:40:39;;;;;;;8.67;2.90;;;12.90;99.90;;;;;;5053348;28;20468;-68
2023/01/13 08:43:05;;;;;;;3.97;3.03;;;12.90;99.90;;;;;;5052706;28;20186;-68
2023/01/13 08:45:30;;;;;;;3.50;2.80;;;12.90;99.90;;;;;;5052271;28;20419;-69
2023/01/13 08:47:56;;;;;;;6.83;3.60;;;13.10;99.90;;;;;;5052338;28;20226;-69
2023/01/13 08:50:22;;;;;;;5.93;3.10;;;13.30;99.90;;;;;;5035774;28;20289;-69
2023/01/13 08:52:51;;;;;;;5.03;3.20;;;13.40;99.90;;;;;;5054920;28;20423;-69
2023/01/13 08:55:17;;;;;;;5.00;3.50;;;13.50;99.90;;;;;;5025982;28;20201;-69
2023/01/13 08:57:42;;;;;;;4.30;2.50;;;13.40;99.90;;;;;;5032197;28;20411;-69
2023/01/13 09:00:09;;;;;;;3.57;2.60;;;13.40;99.90;;;;;;5043733;28;20170;-70
2023/01/13 09:02:37;;;;;;;5.00;2.97;;;13.30;99.90;;;;;;5051294;28;20183;-69
2023/01/13 09:05:05;;;;;;;4.53;2.43;;;13.20;99.90;;;;;;5035210;28;20440;-69
2023/01/13 09:07:33;;;;;;;3.23;2.93;;;13.00;99.90;;;;;;5052072;28;20409;-69
2023/01/13 09:10:00;;;;;;;6.73;2.90;;;13.10;99.90;;;;;;5054317;28;20734;-69
2023/01/13 09:15:11;;;;;;;5.73;3.20;;;13.20;99.90;;;;;;5052357;28;20483;-69
2023/01/13 09:17:37;;;;;;;7.70;3.60;;;13.10;99.90;;;;;;5053301;28;20420;-69
2023/01/13 09:20:04;;;;;;;7.90;3.67;;;13.30;99.90;;;;;;5053639;28;20491;-69
2023/01/13 09:22:30;;;;;;;8.10;4.17;;;13.30;99.90;;;;;;5050903;28;20187;-69
2023/01/13 09:24:58;;;;;;;6.63;4.30;;;13.30;99.80;;;;;;5052740;28;20409;-69
2023/01/13 09:27:24;;;;;;;6.03;3.70;;;13.50;99.90;;;;;;5053481;28;20419;-69
2023/01/13 09:29:50;;;;;;;7.27;3.40;;;13.70;99.90;;;;;;5052647;28;20183;-69
2023/01/13 09:32:16;;;;;;;6.93;3.80;;;13.80;99.90;;;;;;5047619;28;20180;-69
2023/01/13 09:35:00;;;;;;;3.63;3.37;;;14.00;99.90;;;;;;5052745;28;20212;-69
2023/01/13 09:37:32;;;;;;;4.60;3.40;;;13.70;97.90;;;;;;5048682;28;20440;-69
2023/01/13 09:39:59;;;;;;;5.57;3.20;;;13.80;99.60;;;;;;5048678;28;21225;-69
2023/01/13 09:45:41;;;;;;;4.40;3.40;;;13.80;99.90;;;;;;5047288;28;20538;-69
2023/01/13 09:48:17;;;;;;;7.73;3.30;;;13.60;99.20;;;;;;5047780;28;20435;-69
2023/01/13 09:50:47;;;;;;;7.03;4.00;;;13.50;99.90;;;;;;5046685;28;20847;-69
2023/01/13 09:53:20;;;;;;;15.60;4.10;;;13.70;99.90;;;;;;5046460;28;20457;-69
2023/01/13 09:55:46;;;;;;;4.77;3.30;;;13.50;98.20;;;;;;5046193;28;20482;-70
2023/01/13 09:58:16;;;;;;;4.50;3.80;;;13.70;99.90;;;;;;5040510;28;20434;-69
2023/01/13 10:01:10;;;;;;;4.43;3.50;;;13.70;98.60;;;;;;5046267;28;20476;-69
2023/01/13 10:03:36;;;;;;;7.10;3.50;;;13.80;99.90;;;;;;5031841;28;20561;-70
2023/01/13 10:06:33;;;;;;;4.70;2.97;;;13.70;96.70;;;;;;5047982;28;20514;-69
2023/01/13 10:08:59;;;;;;;6.30;4.40;;;13.40;97.50;;;;;;5041284;28;20196;-67
2023/01/13 10:14:22;;;;;;;7.67;3.13;;;12.90;96.40;;;;;;5050188;28;21009;-67
2023/01/13 10:17:32;;;;;;;8.77;4.27;;;12.50;97.80;;;;;;5042051;28;20421;-67
2023/01/13 10:20:02;;;;;;;9.37;3.23;;;12.20;99.00;;;;;;5030032;28;20448;-67
2023/01/13 10:22:40;;;;;;;6.50;3.20;;;12.00;99.90;;;;;;5038171;28;20467;-67
2023/01/13 10:25:38;;;;;;;8.60;3.57;;;11.80;99.90;;;;;;5053816;28;20442;-67
2023/01/13 10:28:14;;;;;;;11.53;3.20;;;11.60;99.90;;;;;;5059496;28;20419;-67
2023/01/13 10:30:42;;;;;;;7.27;3.30;;;11.60;99.90;;;;;;5050311;28;20575;-67
2023/01/13 10:33:23;;;;;;;8.37;3.60;;;11.40;99.90;;;;;;5049756;28;20755;-67
2023/01/13 10:36:14;;;;;;;9.43;3.73;;;11.40;99.90;;;;;;5050611;28;20769;-67
2023/01/13 10:38:41;;;;;;;9.23;4.00;;;11.30;99.90;;;;;;5034291;28;20438;-66
2023/01/13 10:41:29;;;;;;;10.23;4.00;;;11.20;99.90;;;;;;5056070;28;20468;-67
2023/01/13 10:44:04;;;;;;;8.13;3.00;;;11.20;99.90;;;;;;5051901;28;20449;-67
2023/01/13 10:46:48;;;;;;;8.07;3.23;;;11.10;99.90;;;;;;5055140;28;20410;-67
2023/01/13 10:49:35;;;;;;;7.87;3.50;;;11.10;99.90;;;;;;5056360;28;20439;-66
2023/01/13 10:52:03;;;;;;;11.00;2.97;;;11.10;99.90;;;;;;5057196;28;20416;-67
2023/01/13 10:54:29;;;;;;;5.20;2.93;;;11.10;99.90;;;;;;5056442;28;20478;-67
2023/01/13 10:57:18;;;;;;;8.23;3.93;;;11.10;99.90;;;;;;5055477;28;20429;-67
2023/01/13 10:59:44;;;;;;;5.53;3.57;;;11.10;99.90;;;;;;5055048;28;20412;-67
2023/01/13 11:02:33;;;;;;;9.73;3.47;;;11.10;99.90;;;;;;5054582;28;20515;-67
2023/01/13 11:05:08;;;;;;;14.00;3.53;;;11.10;99.90;;;;;;5037712;28;20675;-67
2023/01/13 11:07:37;;;;;;;6.87;2.90;;;11.10;99.90;;;;;;5054971;28;20444;-67
2023/01/13 11:10:21;;;;;;;9.97;3.17;;;11.10;99.90;;;;;;5056094;28;20471;-67
2023/01/13 11:12:57;;;;;;;6.90;2.97;;;11.20;99.90;;;;;;5035127;28;20407;-68
2023/01/13 11:15:36;;;;;;;9.00;3.60;;;11.30;99.90;;;;;;5034758;28;20475;-67
2023/01/13 11:18:09;;;;;;;10.40;3.17;;;11.30;99.90;;;;;;5034578;28;20429;-67
2023/01/13 11:20:39;;;;;;;8.30;2.83;;;11.30;99.90;;;;;;5051335;28;20417;-68
2023/01/13 11:23:34;;;;;;;11.03;3.07;;;11.40;99.90;;;;;;5035946;28;20402;-68
2023/01/13 11:26:28;;;;;;;5.37;3.13;;;11.30;99.90;;;;;;5034978;28;20444;-68
2023/01/13 11:29:07;;;;;;;10.17;3.30;;;11.40;99.90;;;;;;5049998;28;20514;-68
2023/01/13 11:31:42;;;;;;;10.30;2.67;;;11.30;99.90;;;;;;5053713;28;20435;-68
2023/01/13 11:34:34;;;;;;;5.87;3.17;;;11.50;99.90;;;;;;5036057;28;20466;-68
2023/01/13 11:37:02;;;;;;;10.73;3.10;;;11.30;99.90;;;;;;5054445;28;20609;-68
2023/01/13 11:40:04;;;;;;;9.97;3.20;;;11.30;99.90;;;;;;5055973;28;20450;-68
2023/01/13 11:42:49;;;;;;;7.37;2.80;;;11.30;99.90;;;;;;5054607;28;20444;-68
2023/01/13 11:45:42;;;;;;;17.23;4.40;;;11.40;99.90;;;;;;5054034;28;20472;-70
2023/01/13 11:48:21;;;;;;;7.33;2.70;;;11.30;99.90;;;;;;5054949;28;20423;-68
2023/01/13 11:51:06;;;;;;;8.90;3.30;;;11.30;99.90;;;;;;5053011;28;20422;-68
2023/01/13 11:53:44;;;;;;;11.00;3.10;;;11.30;99.90;;;;;;5054191;28;20487;-68
2023/01/13 11:56:28;;;;;;;6.87;3.10;;;11.30;99.90;;;;;;5073186;28;20431;-68
2023/01/13 11:59:31;;;;;;;5.97;3.90;;;11.50;99.90;;;;;;5049339;28;20460;-68
2023/01/13 12:02:13;;;;;;;9.43;3.67;;;11.60;99.90;;;;;;5054629;28;20756;-68
2023/01/13 12:04:42;;;;;;;8.33;3.47;;;11.70;99.90;;;;;;5055028;28;20437;-68
2023/01/13 12:07:39;;;;;;;8.67;3.80;;;11.70;99.90;;;;;;5054727;28;20786;-68
2023/01/13 12:10:37;;;;;;;6.90;3.10;;;11.60;99.90;;;;;;5055205;28;20446;-68
2023/01/13 12:13:30;;;;;;;4.33;3.53;;;11.60;99.90;;;;;;5049366;28;20908;-68
2023/01/13 12:16:05;;;;;;;9.40;4.43;;;11.40;99.90;;;;;;5051200;28;20451;-68
2023/01/13 12:18:50;;;;;;;7.60;3.67;;;11.40;99.90;;;;;;5054502;28;20814;-67
2023/01/13 12:21:19;;;;;;;8.60;3.67;;;11.40;99.90;;;;;;5053734;28;20421;-68
2023/01/13 12:24:17;;;;;;;7.53;3.93;;;11.30;99.90;;;;;;5052671;28;20427;-68
2023/01/13 12:26:51;;;;;;;9.10;3.77;;;11.20;99.90;;;;;;5052542;28;20760;-69
2023/01/13 12:29:19;;;;;;;6.23;2.90;;;11.20;99.90;;;;;;5038991;28;20425;-68
2023/01/13 12:31:49;;;;;;;8.90;2.97;;;11.10;99.90;;;;;;5053805;28;20414;-68
2023/01/13 12:34:30;;;;;;;5.60;2.90;;;11.10;99.90;;;;;;5052608;28;20462;-68
2023/01/13 12:37:43;;;;;;;9.57;3.47;;;11.00;99.90;;;;;;5053823;28;20507;-68
2023/01/13 12:40:46;;;;;;;13.60;3.57;;;11.10;99.90;;;;;;5053820;28;20865;-67
2023/01/13 12:46:25;;;;;;;5.17;2.93;;;11.00;99.90;;;;;;5050019;28;21035;-68
2023/01/13 12:48:55;;;;;;;9.73;3.00;;;11.00;99.90;;;;;;5049409;28;20425;-69
2023/01/13 12:51:24;;;;;;;8.70;3.70;;;10.90;99.90;;;;;;5053202;28;20725;-68
2023/01/13 12:53:51;;;;;;;8.27;2.40;;;10.80;99.90;;;;;;5053391;28;20459;-68
2023/01/13 12:56:43;;;;;;;8.53;2.63;;;10.60;99.90;;;;;;5053716;28;20416;-67
2023/01/13 12:59:18;;;;;;;1.47;1.37;;;10.50;99.90;;;;;;5054366;28;20399;-68
2023/01/13 13:01:46;;;;;;;4.60;2.00;;;10.20;99.90;;;;;;5051235;28;20450;-68
2023/01/13 13:04:39;;;;;;;4.93;2.20;;;10.00;99.90;;;;;;5053472;28;20415;-68
2023/01/13 13:07:14;;;;;;;3.90;2.57;;;9.90;99.90;;;;;;5051568;28;20480;-68
2023/01/13 13:09:48;;;;;;;2.20;2.00;;;9.80;99.90;;;;;;5053392;28;20424;-68
2023/01/13 13:15:28;;;;;;;2.20;2.00;;;9.40;99.90;;;;;;5051508;28;20810;-68
2023/01/13 13:18:15;;;;;;;2.27;1.80;;;9.40;99.90;;;;;;5052243;28;20413;-68
2023/01/13 13:20:56;;;;;;;4.07;2.30;;;9.40;99.90;;;;;;5052049;28;20409;-69
2023/01/13 13:23:43;;;;;;;1.90;1.80;;;9.50;99.90;;;;;;5052165;28;20953;-69
2023/01/13 13:26:41;;;;;;;1.83;1.70;;;9.50;99.90;;;;;;5052526;28;20477;-67
2023/01/13 13:29:40;;;;;;;2.53;2.03;;;9.50;99.90;;;;;;5052915;28;20417;-69
2023/01/13 13:32:17;;;;;;;2.13;1.87;;;9.40;99.90;;;;;;5052783;28;20413;-68
2023/01/13 13:34:58;;;;;;;3.90;1.97;;;9.40;99.90;;;;;;5053357;28;20551;-68
2023/01/13 13:48:53;;;;;;;2.87;1.70;;;9.70;99.90;;;;;;5053142;28;20393;-68
2023/01/13 13:51:31;;;;;;;4.20;2.20;;;9.80;99.90;;;;;;5053102;28;20413;-68
2023/01/13 13:53:58;;;;;;;3.40;2.80;;;9.90;99.90;;;;;;5052665;28;20451;-69
2023/01/13 13:56:27;;;;;;;5.57;3.20;;;9.90;99.90;;;;;;5052896;28;20408;-69
2023/01/13 13:58:53;;;;;;;4.90;2.40;;;9.90;99.90;;;;;;5052272;28;20801;-69
2023/01/13 14:01:31;;;;;;;4.30;3.27;;;10.00;99.90;;;;;;5052590;28;20412;-68
2023/01/13 14:04:29;;;;;;;9.37;4.33;;;10.00;99.90;;;;;;5052256;28;20396;-67
2023/01/13 14:07:00;;;;;;;5.50;3.40;;;10.00;99.90;;;;;;5047795;28;20815;-69
2023/01/13 14:09:28;;;;;;;7.70;3.43;;;10.00;99.90;;;;;;5050040;28;20487;-69
2023/01/13 14:12:00;;;;;;;6.93;3.03;;;10.10;99.90;;;;;;5051781;28;20441;-68
2023/01/13 14:14:26;;;;;;;7.20;3.23;;;10.10;99.90;;;;;;5052841;28;20448;-68
2023/01/13 14:16:53;;;;;;;6.07;3.13;;;10.20;99.90;;;;;;5052044;28;20422;-68